Terminal Aerodrome Forecast
Issued by NWS

Home | Current Version | Previous Version | Text Only | Print | Product List | Glossary On
Versions: 1 2 3 4 5 6 7 8 9 10 11 12 13 14 15 16 17 18 19 20 21 22 23
425
FTUS43 KMQT 071521 AAA
TAFCMX
TAF AMD
KCMX 071521Z 0715/0812 18006KT 5SM -SN BR OVC007
      TEMPO 0715/0716 1SM -SN BKN002
     FM072300 25003KT 2SM -SN OVC004
     FM080500 35008KT 1 1/2SM -SN OVC007
     FM080800 35014G21KT 1SM -SN BLSN OVC007=

USA.gov is the U.S. government's official web portal to all federal, state and local government web resources and services.